createdAt,value
2022-11-10T00:00:07.834Z,14.05
2022-11-10T00:12:25.124Z,13.18
2022-11-10T00:18:28.251Z,12.63
2022-11-10T00:24:36.628Z,13.77
2022-11-10T00:56:13.891Z,13.23
2022-11-10T01:02:34.715Z,12.27
2022-11-10T01:08:50.349Z,14.63
2022-11-10T01:26:18.985Z,11.43
2022-11-10T01:45:29.130Z,10.20
2022-11-10T01:50:50.238Z,10.32
2022-11-10T01:56:12.625Z,10.75
2022-11-10T02:01:36.165Z,9.68
2022-11-10T02:07:00.792Z,10.25
2022-11-10T02:13:14.245Z,11.18
2022-11-10T02:20:04.060Z,10.23
2022-11-10T02:32:01.501Z,10.50
2022-11-10T02:37:22.310Z,10.80
2022-11-10T02:43:04.764Z,10.68
2022-11-10T02:54:30.352Z,9.45
2022-11-10T03:07:35.478Z,8.90
2022-11-10T03:13:04.180Z,9.60
2022-11-10T03:18:34.838Z,8.05
2022-11-10T03:31:01.218Z,7.32
2022-11-10T03:43:21.663Z,7.03
2022-11-10T03:48:53.687Z,6.72
2022-11-10T03:54:22.891Z,7.20
2022-11-10T04:00:06.216Z,7.40
2022-11-10T04:37:23.927Z,6.75
2022-11-10T04:49:25.948Z,6.68
2022-11-10T05:22:53.560Z,5.80
2022-11-10T05:42:06.503Z,8.68
2022-11-10T06:13:27.614Z,7.43
2022-11-10T06:30:53.104Z,8.27
2022-11-10T06:36:36.680Z,7.28
2022-11-10T06:42:34.149Z,5.97
2022-11-10T06:48:04.768Z,5.60
2022-11-10T06:53:37.335Z,7.25
2022-11-10T06:58:59.814Z,6.32
2022-11-10T07:04:20.980Z,5.60
2022-11-10T07:09:42.746Z,4.85
2022-11-10T07:15:03.938Z,4.80
2022-11-10T07:20:30.121Z,4.80
2022-11-10T07:25:50.920Z,6.88
2022-11-10T07:31:12.241Z,5.53
2022-11-10T07:36:33.626Z,4.10
2022-11-10T07:41:54.888Z,4.13
2022-11-10T07:47:17.066Z,3.67
2022-11-10T07:52:38.071Z,3.03
2022-11-10T07:58:09.911Z,3.20
2022-11-10T08:03:33.599Z,4.30
2022-11-10T08:09:17.221Z,5.93
2022-11-10T08:15:06.723Z,6.70
2022-11-10T08:20:33.584Z,7.45
2022-11-10T08:25:58.588Z,4.35
2022-11-10T08:31:22.803Z,2.95
2022-11-10T08:36:46.067Z,2.95
2022-11-10T08:42:07.364Z,2.83
2022-11-10T08:47:50.648Z,3.10
2022-11-10T08:53:16.975Z,2.85
2022-11-10T08:58:53.339Z,3.38
2022-11-10T09:04:17.393Z,2.50
2022-11-10T09:09:44.564Z,2.20
2022-11-10T09:15:13.838Z,2.03
2022-11-10T09:20:37.525Z,2.55
2022-11-10T09:26:17.833Z,2.28
2022-11-10T09:31:47.912Z,2.22
2022-11-10T09:38:10.637Z,4.53
2022-11-10T09:43:35.877Z,2.80
2022-11-10T09:49:49.187Z,3.60
2022-11-10T09:56:12.856Z,3.00
2022-11-10T10:02:04.246Z,2.78
2022-11-10T10:07:41.428Z,2.95
2022-11-10T10:13:50.736Z,2.60
2022-11-10T10:19:23.385Z,2.97
2022-11-10T10:25:13.397Z,2.42
2022-11-10T10:30:35.238Z,2.47
2022-11-10T10:36:30.688Z,2.38
2022-11-10T10:42:05.389Z,2.35
2022-11-10T10:53:47.282Z,2.30
2022-11-10T10:59:23.711Z,2.20
2022-11-10T11:11:14.128Z,2.17
2022-11-10T11:17:12.485Z,2.35
2022-11-10T11:22:58.568Z,2.28
2022-11-10T11:29:08.570Z,1.58
2022-11-10T11:34:57.040Z,2.08
2022-11-10T11:40:44.428Z,1.45
2022-11-10T11:46:28.188Z,1.80
2022-11-10T11:52:13.531Z,2.10
2022-11-10T11:57:40.947Z,2.05
2022-11-10T12:03:30.581Z,1.50
2022-11-10T12:08:59.997Z,2.40
2022-11-10T12:14:42.934Z,2.92
2022-11-10T12:20:22.680Z,2.40
2022-11-10T12:25:59.771Z,1.75
2022-11-10T12:31:23.508Z,3.65
2022-11-10T12:36:44.907Z,3.83
2022-11-10T12:42:11.265Z,3.90
2022-11-10T12:47:39.618Z,2.30
2022-11-10T12:53:19.701Z,2.03
2022-11-10T12:58:41.537Z,1.50
2022-11-10T13:04:05.212Z,2.05
2022-11-10T13:14:51.390Z,2.30
2022-11-10T13:20:54.410Z,2.13
2022-11-10T13:26:40.203Z,2.35
2022-11-10T13:32:16.909Z,2.00
2022-11-10T13:37:39.119Z,1.60
2022-11-10T13:43:00.272Z,2.92
2022-11-10T13:48:33.520Z,2.33
2022-11-10T13:54:13.223Z,2.20
2022-11-10T13:59:45.542Z,3.20
2022-11-10T14:05:09.179Z,3.78
2022-11-10T14:10:43.042Z,11.38
2022-11-10T14:16:05.347Z,11.00
2022-11-10T14:21:31.226Z,9.25
2022-11-10T14:26:54.078Z,11.70
2022-11-10T14:32:19.549Z,10.70
2022-11-10T14:37:43.475Z,7.15
2022-11-10T14:43:05.152Z,8.80
2022-11-10T14:48:28.658Z,11.25
2022-11-10T14:53:51.913Z,11.30
2022-11-10T14:59:13.943Z,12.73
2022-11-10T15:04:36.797Z,15.23
2022-11-10T15:10:05.531Z,12.43
2022-11-10T15:15:26.882Z,10.88
2022-11-10T15:20:59.122Z,8.73
2022-11-10T15:26:22.407Z,9.50
2022-11-10T15:31:43.714Z,14.25
2022-11-10T15:37:30.491Z,12.73
2022-11-10T15:43:27.907Z,11.00
2022-11-10T15:48:50.952Z,17.48
2022-11-10T15:54:12.347Z,13.37
2022-11-10T15:59:33.540Z,12.80
2022-11-10T16:04:59.509Z,11.45
2022-11-10T16:10:21.185Z,12.48
2022-11-10T16:15:43.025Z,13.13
2022-11-10T16:21:04.392Z,16.05
2022-11-10T16:26:26.053Z,11.60
2022-11-10T16:31:50.482Z,15.40
2022-11-10T16:37:12.759Z,28.23
2022-11-10T16:42:33.785Z,25.27
2022-11-10T16:47:54.953Z,24.15
2022-11-10T16:53:22.860Z,21.48
2022-11-10T16:58:44.127Z,22.52
2022-11-10T17:04:08.093Z,17.65
2022-11-10T17:09:30.896Z,16.17
2022-11-10T17:14:52.058Z,12.07
2022-11-10T17:20:26.316Z,9.80
2022-11-10T17:25:47.621Z,9.27
2022-11-10T17:31:08.700Z,9.10
2022-11-10T17:36:30.742Z,9.80
2022-11-10T17:41:52.435Z,10.77
2022-11-10T17:47:13.418Z,16.30
2022-11-10T17:52:34.867Z,17.60
2022-11-10T17:57:57.920Z,17.00
2022-11-10T18:03:21.744Z,13.13
2022-11-10T18:08:43.388Z,10.98
2022-11-10T18:14:04.411Z,13.32
2022-11-10T18:19:26.324Z,12.95
2022-11-10T18:24:47.756Z,11.48
2022-11-10T18:30:09.141Z,12.57
2022-11-10T18:35:30.187Z,14.00
2022-11-10T18:40:51.266Z,14.82
2022-11-10T18:46:12.320Z,20.20
2022-11-10T18:51:33.847Z,23.25
2022-11-10T18:56:54.845Z,25.30
2022-11-10T19:02:15.708Z,21.75
2022-11-10T19:07:36.517Z,38.58
2022-11-10T19:12:59.740Z,30.70
2022-11-10T19:18:21.371Z,15.45
2022-11-10T19:23:43.532Z,20.27
2022-11-10T19:29:04.667Z,16.60
2022-11-10T19:34:25.808Z,17.95
2022-11-10T19:39:46.921Z,11.80
2022-11-10T19:45:08.562Z,9.23
2022-11-10T19:50:32.566Z,12.70
2022-11-10T19:55:53.987Z,13.18
2022-11-10T20:01:17.001Z,7.78
2022-11-10T20:06:38.392Z,11.60
2022-11-10T20:11:59.511Z,9.77
2022-11-10T20:17:20.342Z,8.35
2022-11-10T20:22:41.555Z,12.23
2022-11-10T20:28:06.123Z,13.95
2022-11-10T20:33:27.810Z,28.23
2022-11-10T20:38:49.495Z,34.05
2022-11-10T20:44:10.529Z,20.75
2022-11-10T20:49:31.671Z,13.63
2022-11-10T20:55:07.119Z,13.73
2022-11-10T21:00:27.930Z,11.63
2022-11-10T21:05:55.621Z,9.40
2022-11-10T21:11:36.685Z,9.65
2022-11-10T21:17:00.904Z,8.75
2022-11-10T21:22:32.463Z,15.85
2022-11-10T21:28:02.746Z,16.17
2022-11-10T21:33:24.487Z,11.85
2022-11-10T21:38:46.561Z,11.18
2022-11-10T21:44:07.697Z,8.98
2022-11-10T21:49:28.830Z,7.13
2022-11-10T21:54:50.227Z,6.05
2022-11-10T22:00:12.978Z,6.20
2022-11-10T22:05:34.075Z,6.03
2022-11-10T22:11:13.501Z,5.60
2022-11-10T22:17:04.625Z,6.57
2022-11-10T22:22:25.726Z,8.73
2022-11-10T22:27:46.897Z,9.05
2022-11-10T22:33:27.963Z,7.88
2022-11-10T22:38:49.863Z,11.02
2022-11-10T22:44:12.296Z,9.07
2022-11-10T22:49:33.018Z,6.63
2022-11-10T22:54:54.435Z,6.07
2022-11-10T23:00:16.257Z,5.30
2022-11-10T23:05:37.580Z,5.43
2022-11-10T23:10:59.949Z,5.30
2022-11-10T23:16:25.997Z,4.90
2022-11-10T23:21:47.004Z,4.32
2022-11-10T23:27:08.163Z,4.70
2022-11-10T23:32:29.023Z,4.60
2022-11-10T23:37:50.174Z,4.22
2022-11-10T23:43:11.474Z,4.63
2022-11-10T23:48:32.899Z,4.78
2022-11-10T23:53:53.975Z,4.10
2022-11-10T23:59:15.869Z,4.80
